sensor_id;sensor_type;location;lat;lon;timestamp;P1;durP1;ratioP1;P2;durP2;ratioP2
40022;SDS011;25713;-35.352;149.036;2023-08-30T00:00:36;3.35;;;2.13;;
40022;SDS011;25713;-35.352;149.036;2023-08-30T00:03:06;2.95;;;2.03;;
40022;SDS011;25713;-35.352;149.036;2023-08-30T00:05:38;3.95;;;2.00;;
40022;SDS011;25713;-35.352;149.036;2023-08-30T00:08:07;3.45;;;2.15;;
40022;SDS011;25713;-35.352;149.036;2023-08-30T00:10:37;3.10;;;1.77;;
40022;SDS011;25713;-35.352;149.036;2023-08-30T00:13:08;4.68;;;2.15;;
40022;SDS011;25713;-35.352;149.036;2023-08-30T00:15:38;3.75;;;2.30;;
40022;SDS011;25713;-35.352;149.036;2023-08-30T00:18:08;4.32;;;2.30;;
40022;SDS011;25713;-35.352;149.036;2023-08-30T00:20:37;3.72;;;2.10;;
40022;SDS011;25713;-35.352;149.036;2023-08-30T00:23:07;2.75;;;2.45;;
40022;SDS011;25713;-35.352;149.036;2023-08-30T00:25:36;4.10;;;2.05;;
40022;SDS011;25713;-35.352;149.036;2023-08-30T00:28:06;4.68;;;2.17;;
40022;SDS011;25713;-35.352;149.036;2023-08-30T00:30:37;4.18;;;2.00;;
40022;SDS011;25713;-35.352;149.036;2023-08-30T00:33:07;3.38;;;2.08;;
40022;SDS011;25713;-35.352;149.036;2023-08-30T00:35:37;3.03;;;2.35;;
40022;SDS011;25713;-35.352;149.036;2023-08-30T00:38:06;2.78;;;2.28;;
40022;SDS011;25713;-35.352;149.036;2023-08-30T00:40:39;2.63;;;1.90;;
40022;SDS011;25713;-35.352;149.036;2023-08-30T00:43:12;4.85;;;2.20;;
40022;SDS011;25713;-35.352;149.036;2023-08-30T00:45:42;3.50;;;1.95;;
40022;SDS011;25713;-35.352;149.036;2023-08-30T00:48:12;3.53;;;2.10;;
40022;SDS011;25713;-35.352;149.036;2023-08-30T00:50:42;2.05;;;1.60;;
40022;SDS011;25713;-35.352;149.036;2023-08-30T00:53:12;5.35;;;2.03;;
40022;SDS011;25713;-35.352;149.036;2023-08-30T00:55:42;3.58;;;1.70;;
40022;SDS011;25713;-35.352;149.036;2023-08-30T00:58:13;4.65;;;2.20;;
40022;SDS011;25713;-35.352;149.036;2023-08-30T01:00:43;2.00;;;1.70;;
40022;SDS011;25713;-35.352;149.036;2023-08-30T01:03:13;4.68;;;1.80;;
40022;SDS011;25713;-35.352;149.036;2023-08-30T01:05:42;3.25;;;1.80;;
40022;SDS011;25713;-35.352;149.036;2023-08-30T01:08:11;2.42;;;1.80;;
40022;SDS011;25713;-35.352;149.036;2023-08-30T01:10:44;2.90;;;1.80;;
40022;SDS011;25713;-35.352;149.036;2023-08-30T01:13:23;2.17;;;1.73;;
40022;SDS011;25713;-35.352;149.036;2023-08-30T01:15:53;2.60;;;1.90;;
40022;SDS011;25713;-35.352;149.036;2023-08-30T01:18:24;1.90;;;1.40;;
40022;SDS011;25713;-35.352;149.036;2023-08-30T01:20:58;4.43;;;1.80;;
40022;SDS011;25713;-35.352;149.036;2023-08-30T01:23:36;4.80;;;1.77;;
40022;SDS011;25713;-35.352;149.036;2023-08-30T01:26:15;2.55;;;1.42;;
40022;SDS011;25713;-35.352;149.036;2023-08-30T01:28:54;2.58;;;1.50;;
40022;SDS011;25713;-35.352;149.036;2023-08-30T01:31:28;2.03;;;1.67;;
40022;SDS011;25713;-35.352;149.036;2023-08-30T01:33:59;3.10;;;1.58;;
40022;SDS011;25713;-35.352;149.036;2023-08-30T01:36:31;2.27;;;1.50;;
40022;SDS011;25713;-35.352;149.036;2023-08-30T01:39:02;2.63;;;1.43;;
40022;SDS011;25713;-35.352;149.036;2023-08-30T01:41:32;1.67;;;1.50;;
40022;SDS011;25713;-35.352;149.036;2023-08-30T01:44:05;2.75;;;1.35;;
40022;SDS011;25713;-35.352;149.036;2023-08-30T01:46:37;1.88;;;1.30;;
40022;SDS011;25713;-35.352;149.036;2023-08-30T01:49:07;2.28;;;1.30;;
40022;SDS011;25713;-35.352;149.036;2023-08-30T01:51:38;3.05;;;1.20;;
40022;SDS011;25713;-35.352;149.036;2023-08-30T01:54:08;2.88;;;1.48;;
40022;SDS011;25713;-35.352;149.036;2023-08-30T01:59:11;2.80;;;1.00;;
40022;SDS011;25713;-35.352;149.036;2023-08-30T02:01:41;1.90;;;1.30;;
40022;SDS011;25713;-35.352;149.036;2023-08-30T02:04:11;1.88;;;1.27;;
40022;SDS011;25713;-35.352;149.036;2023-08-30T02:06:41;2.75;;;1.25;;
40022;SDS011;25713;-35.352;149.036;2023-08-30T02:09:17;2.58;;;1.20;;
40022;SDS011;25713;-35.352;149.036;2023-08-30T02:11:51;2.17;;;1.85;;
40022;SDS011;25713;-35.352;149.036;2023-08-30T02:14:25;2.38;;;1.00;;
40022;SDS011;25713;-35.352;149.036;2023-08-30T02:16:56;2.10;;;1.00;;
40022;SDS011;25713;-35.352;149.036;2023-08-30T02:19:25;1.50;;;1.00;;
40022;SDS011;25713;-35.352;149.036;2023-08-30T02:21:55;1.25;;;1.08;;
40022;SDS011;25713;-35.352;149.036;2023-08-30T02:24:26;1.13;;;1.00;;
40022;SDS011;25713;-35.352;149.036;2023-08-30T02:26:57;5.55;;;1.13;;
40022;SDS011;25713;-35.352;149.036;2023-08-30T02:29:29;1.27;;;0.90;;
40022;SDS011;25713;-35.352;149.036;2023-08-30T02:31:59;1.65;;;1.00;;
40022;SDS011;25713;-35.352;149.036;2023-08-30T02:34:29;2.15;;;0.95;;
40022;SDS011;25713;-35.352;149.036;2023-08-30T02:36:59;1.48;;;0.90;;
40022;SDS011;25713;-35.352;149.036;2023-08-30T02:39:28;1.42;;;1.00;;
40022;SDS011;25713;-35.352;149.036;2023-08-30T02:41:57;1.90;;;0.93;;
40022;SDS011;25713;-35.352;149.036;2023-08-30T02:44:29;1.02;;;0.93;;
40022;SDS011;25713;-35.352;149.036;2023-08-30T02:46:58;0.70;;;0.60;;
40022;SDS011;25713;-35.352;149.036;2023-08-30T02:49:28;1.00;;;0.90;;
40022;SDS011;25713;-35.352;149.036;2023-08-30T02:51:57;0.93;;;0.80;;
40022;SDS011;25713;-35.352;149.036;2023-08-30T02:54:27;1.45;;;1.08;;
40022;SDS011;25713;-35.352;149.036;2023-08-30T02:56:57;1.10;;;0.68;;
40022;SDS011;25713;-35.352;149.036;2023-08-30T02:59:28;1.38;;;0.88;;
40022;SDS011;25713;-35.352;149.036;2023-08-30T03:02:04;0.95;;;0.80;;
40022;SDS011;25713;-35.352;149.036;2023-08-30T03:04:34;0.80;;;0.80;;
40022;SDS011;25713;-35.352;149.036;2023-08-30T03:07:04;1.27;;;0.90;;
40022;SDS011;25713;-35.352;149.036;2023-08-30T03:09:33;1.67;;;0.60;;
40022;SDS011;25713;-35.352;149.036;2023-08-30T03:12:03;1.05;;;0.68;;
40022;SDS011;25713;-35.352;149.036;2023-08-30T03:14:36;3.30;;;0.98;;
40022;SDS011;25713;-35.352;149.036;2023-08-30T03:17:05;1.15;;;0.90;;
40022;SDS011;25713;-35.352;149.036;2023-08-30T03:19:35;0.95;;;0.70;;
40022;SDS011;25713;-35.352;149.036;2023-08-30T03:22:04;1.17;;;0.70;;
40022;SDS011;25713;-35.352;149.036;2023-08-30T03:24:34;1.10;;;0.80;;
40022;SDS011;25713;-35.352;149.036;2023-08-30T03:27:03;0.68;;;0.60;;
40022;SDS011;25713;-35.352;149.036;2023-08-30T03:29:33;1.35;;;0.70;;
40022;SDS011;25713;-35.352;149.036;2023-08-30T03:32:06;0.75;;;0.75;;
40022;SDS011;25713;-35.352;149.036;2023-08-30T03:34:35;2.67;;;0.82;;
40022;SDS011;25713;-35.352;149.036;2023-08-30T03:37:04;1.48;;;0.70;;
40022;SDS011;25713;-35.352;149.036;2023-08-30T03:39:36;1.20;;;0.80;;
40022;SDS011;25713;-35.352;149.036;2023-08-30T03:42:06;1.20;;;0.70;;
40022;SDS011;25713;-35.352;149.036;2023-08-30T03:44:37;0.70;;;0.70;;
40022;SDS011;25713;-35.352;149.036;2023-08-30T03:47:08;1.42;;;0.90;;
40022;SDS011;25713;-35.352;149.036;2023-08-30T03:49:37;0.80;;;0.60;;
40022;SDS011;25713;-35.352;149.036;2023-08-30T03:52:08;0.60;;;0.60;;
40022;SDS011;25713;-35.352;149.036;2023-08-30T03:54:37;0.70;;;0.65;;
40022;SDS011;25713;-35.352;149.036;2023-08-30T03:57:07;3.08;;;0.70;;
40022;SDS011;25713;-35.352;149.036;2023-08-30T03:59:38;1.65;;;0.95;;
40022;SDS011;25713;-35.352;149.036;2023-08-30T04:02:08;1.10;;;0.80;;
40022;SDS011;25713;-35.352;149.036;2023-08-30T04:04:38;0.82;;;0.60;;
40022;SDS011;25713;-35.352;149.036;2023-08-30T04:07:07;0.70;;;0.70;;
40022;SDS011;25713;-35.352;149.036;2023-08-30T04:09:37;0.80;;;0.80;;
40022;SDS011;25713;-35.352;149.036;2023-08-30T04:12:06;1.77;;;0.77;;
40022;SDS011;25713;-35.352;149.036;2023-08-30T04:14:36;1.50;;;0.60;;
40022;SDS011;25713;-35.352;149.036;2023-08-30T04:17:08;1.20;;;0.85;;
40022;SDS011;25713;-35.352;149.036;2023-08-30T04:19:38;1.10;;;0.90;;
40022;SDS011;25713;-35.352;149.036;2023-08-30T04:22:09;0.80;;;0.80;;
40022;SDS011;25713;-35.352;149.036;2023-08-30T04:24:38;1.67;;;0.80;;
40022;SDS011;25713;-35.352;149.036;2023-08-30T04:27:08;1.42;;;0.70;;
40022;SDS011;25713;-35.352;149.036;2023-08-30T04:29:39;1.00;;;0.80;;
40022;SDS011;25713;-35.352;149.036;2023-08-30T04:32:09;1.10;;;0.73;;
40022;SDS011;25713;-35.352;149.036;2023-08-30T04:34:38;1.55;;;0.80;;
40022;SDS011;25713;-35.352;149.036;2023-08-30T04:37:08;1.10;;;0.80;;
40022;SDS011;25713;-35.352;149.036;2023-08-30T04:39:38;1.17;;;0.90;;
40022;SDS011;25713;-35.352;149.036;2023-08-30T04:42:08;1.58;;;0.90;;
40022;SDS011;25713;-35.352;149.036;2023-08-30T04:44:37;1.02;;;0.70;;
40022;SDS011;25713;-35.352;149.036;2023-08-30T04:47:09;1.27;;;0.70;;
40022;SDS011;25713;-35.352;149.036;2023-08-30T04:49:40;1.58;;;0.70;;
40022;SDS011;25713;-35.352;149.036;2023-08-30T04:52:09;1.33;;;0.60;;
40022;SDS011;25713;-35.352;149.036;2023-08-30T04:54:39;1.75;;;0.70;;
40022;SDS011;25713;-35.352;149.036;2023-08-30T04:57:08;0.82;;;0.70;;
40022;SDS011;25713;-35.352;149.036;2023-08-30T04:59:38;0.93;;;0.75;;
40022;SDS011;25713;-35.352;149.036;2023-08-30T05:02:10;0.98;;;0.70;;
40022;SDS011;25713;-35.352;149.036;2023-08-30T05:04:49;1.83;;;1.17;;
40022;SDS011;25713;-35.352;149.036;2023-08-30T05:07:19;2.72;;;0.60;;
40022;SDS011;25713;-35.352;149.036;2023-08-30T05:09:48;1.35;;;0.85;;
40022;SDS011;25713;-35.352;149.036;2023-08-30T05:12:18;0.80;;;0.70;;
40022;SDS011;25713;-35.352;149.036;2023-08-30T05:14:49;1.15;;;1.02;;
40022;SDS011;25713;-35.352;149.036;2023-08-30T05:17:18;1.48;;;0.95;;
40022;SDS011;25713;-35.352;149.036;2023-08-30T05:19:48;1.25;;;1.15;;
40022;SDS011;25713;-35.352;149.036;2023-08-30T05:22:17;2.60;;;1.10;;
40022;SDS011;25713;-35.352;149.036;2023-08-30T05:24:48;1.90;;;1.08;;
40022;SDS011;25713;-35.352;149.036;2023-08-30T05:27:18;2.25;;;1.05;;
40022;SDS011;25713;-35.352;149.036;2023-08-30T05:29:50;0.98;;;0.90;;
40022;SDS011;25713;-35.352;149.036;2023-08-30T05:32:20;2.22;;;1.05;;
40022;SDS011;25713;-35.352;149.036;2023-08-30T05:35:17;2.63;;;1.13;;
40022;SDS011;25713;-35.352;149.036;2023-08-30T05:40:41;1.50;;;0.93;;
40022;SDS011;25713;-35.352;149.036;2023-08-30T05:43:10;1.80;;;1.00;;
40022;SDS011;25713;-35.352;149.036;2023-08-30T05:45:42;1.58;;;1.05;;
40022;SDS011;25713;-35.352;149.036;2023-08-30T05:48:11;1.60;;;1.00;;
40022;SDS011;25713;-35.352;149.036;2023-08-30T05:50:41;1.45;;;1.00;;
40022;SDS011;25713;-35.352;149.036;2023-08-30T05:53:11;1.20;;;1.00;;
40022;SDS011;25713;-35.352;149.036;2023-08-30T05:55:40;2.78;;;0.80;;
40022;SDS011;25713;-35.352;149.036;2023-08-30T05:58:10;1.95;;;1.08;;
40022;SDS011;25713;-35.352;149.036;2023-08-30T06:00:42;2.58;;;0.90;;
40022;SDS011;25713;-35.352;149.036;2023-08-30T06:03:11;1.42;;;0.90;;
40022;SDS011;25713;-35.352;149.036;2023-08-30T06:05:40;2.17;;;1.00;;
40022;SDS011;25713;-35.352;149.036;2023-08-30T06:08:10;1.00;;;0.90;;
40022;SDS011;25713;-35.352;149.036;2023-08-30T06:10:39;1.10;;;0.90;;
40022;SDS011;25713;-35.352;149.036;2023-08-30T06:13:09;1.10;;;0.90;;
40022;SDS011;25713;-35.352;149.036;2023-08-30T06:15:38;1.17;;;0.82;;
40022;SDS011;25713;-35.352;149.036;2023-08-30T06:18:10;2.17;;;0.90;;
40022;SDS011;25713;-35.352;149.036;2023-08-30T06:20:40;2.45;;;0.82;;
40022;SDS011;25713;-35.352;149.036;2023-08-30T06:23:10;1.88;;;0.98;;
40022;SDS011;25713;-35.352;149.036;2023-08-30T06:25:39;2.08;;;0.80;;
40022;SDS011;25713;-35.352;149.036;2023-08-30T06:28:08;1.23;;;0.90;;
40022;SDS011;25713;-35.352;149.036;2023-08-30T06:30:38;1.02;;;0.90;;
40022;SDS011;25713;-35.352;149.036;2023-08-30T06:33:09;3.50;;;0.98;;
40022;SDS011;25713;-35.352;149.036;2023-08-30T06:35:39;1.60;;;0.80;;
40022;SDS011;25713;-35.352;149.036;2023-08-30T06:38:09;3.15;;;0.93;;
40022;SDS011;25713;-35.352;149.036;2023-08-30T06:40:42;1.45;;;1.08;;
40022;SDS011;25713;-35.352;149.036;2023-08-30T06:43:13;1.05;;;0.95;;
40022;SDS011;25713;-35.352;149.036;2023-08-30T06:45:44;1.25;;;1.00;;
40022;SDS011;25713;-35.352;149.036;2023-08-30T06:48:13;1.30;;;0.82;;
40022;SDS011;25713;-35.352;149.036;2023-08-30T06:50:43;2.22;;;0.98;;
40022;SDS011;25713;-35.352;149.036;2023-08-30T06:53:13;1.35;;;0.85;;
40022;SDS011;25713;-35.352;149.036;2023-08-30T06:55:42;1.35;;;1.00;;
40022;SDS011;25713;-35.352;149.036;2023-08-30T06:58:12;2.50;;;1.05;;
40022;SDS011;25713;-35.352;149.036;2023-08-30T07:00:43;1.40;;;1.13;;
40022;SDS011;25713;-35.352;149.036;2023-08-30T07:03:13;1.60;;;1.00;;
40022;SDS011;25713;-35.352;149.036;2023-08-30T07:05:43;2.42;;;0.98;;
40022;SDS011;25713;-35.352;149.036;2023-08-30T07:08:12;1.85;;;1.00;;
40022;SDS011;25713;-35.352;149.036;2023-08-30T07:10:42;0.88;;;0.88;;
40022;SDS011;25713;-35.352;149.036;2023-08-30T07:13:12;1.42;;;0.90;;
40022;SDS011;25713;-35.352;149.036;2023-08-30T07:15:43;1.20;;;1.08;;
40022;SDS011;25713;-35.352;149.036;2023-08-30T07:18:13;1.92;;;0.93;;
40022;SDS011;25713;-35.352;149.036;2023-08-30T07:20:42;1.33;;;1.00;;
40022;SDS011;25713;-35.352;149.036;2023-08-30T07:23:12;1.23;;;1.00;;
40022;SDS011;25713;-35.352;149.036;2023-08-30T07:25:41;1.38;;;0.90;;
40022;SDS011;25713;-35.352;149.036;2023-08-30T07:28:11;1.10;;;1.00;;
40022;SDS011;25713;-35.352;149.036;2023-08-30T07:30:40;1.20;;;0.80;;
40022;SDS011;25713;-35.352;149.036;2023-08-30T07:33:11;1.55;;;0.85;;
40022;SDS011;25713;-35.352;149.036;2023-08-30T07:35:41;1.30;;;1.08;;
40022;SDS011;25713;-35.352;149.036;2023-08-30T07:38:10;2.50;;;1.20;;
40022;SDS011;25713;-35.352;149.036;2023-08-30T07:40:40;1.50;;;1.00;;
40022;SDS011;25713;-35.352;149.036;2023-08-30T07:43:09;1.00;;;0.90;;
40022;SDS011;25713;-35.352;149.036;2023-08-30T07:45:39;1.20;;;1.00;;
40022;SDS011;25713;-35.352;149.036;2023-08-30T07:48:10;1.85;;;0.85;;
40022;SDS011;25713;-35.352;149.036;2023-08-30T07:50:40;0.93;;;0.80;;
40022;SDS011;25713;-35.352;149.036;2023-08-30T07:53:10;1.20;;;0.90;;
40022;SDS011;25713;-35.352;149.036;2023-08-30T07:55:40;1.05;;;0.95;;
40022;SDS011;25713;-35.352;149.036;2023-08-30T07:58:09;2.30;;;0.90;;
40022;SDS011;25713;-35.352;149.036;2023-08-30T08:00:38;1.60;;;1.20;;
40022;SDS011;25713;-35.352;149.036;2023-08-30T08:03:08;1.23;;;0.98;;
40022;SDS011;25713;-35.352;149.036;2023-08-30T08:05:40;2.17;;;1.10;;
40022;SDS011;25713;-35.352;149.036;2023-08-30T08:08:10;1.63;;;1.00;;
40022;SDS011;25713;-35.352;149.036;2023-08-30T08:10:39;1.60;;;0.93;;
40022;SDS011;25713;-35.352;149.036;2023-08-30T08:13:10;1.40;;;1.08;;
40022;SDS011;25713;-35.352;149.036;2023-08-30T08:15:39;1.25;;;1.00;;
40022;SDS011;25713;-35.352;149.036;2023-08-30T08:18:08;3.15;;;1.13;;
40022;SDS011;25713;-35.352;149.036;2023-08-30T08:20:40;1.40;;;1.30;;
40022;SDS011;25713;-35.352;149.036;2023-08-30T08:23:09;1.38;;;1.23;;
40022;SDS011;25713;-35.352;149.036;2023-08-30T08:25:39;2.00;;;1.23;;
40022;SDS011;25713;-35.352;149.036;2023-08-30T08:28:08;1.38;;;1.20;;
40022;SDS011;25713;-35.352;149.036;2023-08-30T08:30:38;2.22;;;1.33;;
40022;SDS011;25713;-35.352;149.036;2023-08-30T08:33:07;2.50;;;1.38;;
40022;SDS011;25713;-35.352;149.036;2023-08-30T08:35:38;2.10;;;1.20;;
40022;SDS011;25713;-35.352;149.036;2023-08-30T08:38:08;2.97;;;1.40;;
40022;SDS011;25713;-35.352;149.036;2023-08-30T08:40:38;1.17;;;1.08;;
40022;SDS011;25713;-35.352;149.036;2023-08-30T08:43:07;1.55;;;1.13;;
40022;SDS011;25713;-35.352;149.036;2023-08-30T08:45:38;1.75;;;1.10;;
40022;SDS011;25713;-35.352;149.036;2023-08-30T08:48:08;1.27;;;1.02;;
40022;SDS011;25713;-35.352;149.036;2023-08-30T08:50:42;2.28;;;1.27;;
40022;SDS011;25713;-35.352;149.036;2023-08-30T08:53:12;2.08;;;1.42;;
40022;SDS011;25713;-35.352;149.036;2023-08-30T08:55:42;2.10;;;1.05;;
40022;SDS011;25713;-35.352;149.036;2023-08-30T08:58:14;5.05;;;1.60;;
40022;SDS011;25713;-35.352;149.036;2023-08-30T09:00:43;2.80;;;1.50;;
40022;SDS011;25713;-35.352;149.036;2023-08-30T09:03:13;1.42;;;1.23;;
40022;SDS011;25713;-35.352;149.036;2023-08-30T09:05:45;3.90;;;1.30;;
40022;SDS011;25713;-35.352;149.036;2023-08-30T09:08:14;2.22;;;1.45;;
40022;SDS011;25713;-35.352;149.036;2023-08-30T09:10:45;1.45;;;1.35;;
40022;SDS011;25713;-35.352;149.036;2023-08-30T09:13:14;1.92;;;1.15;;
40022;SDS011;25713;-35.352;149.036;2023-08-30T09:15:44;1.92;;;1.42;;
40022;SDS011;25713;-35.352;149.036;2023-08-30T09:18:16;1.35;;;1.25;;
40022;SDS011;25713;-35.352;149.036;2023-08-30T09:20:48;2.28;;;1.67;;
40022;SDS011;25713;-35.352;149.036;2023-08-30T09:23:18;5.05;;;1.40;;
40022;SDS011;25713;-35.352;149.036;2023-08-30T09:25:47;1.35;;;1.10;;
40022;SDS011;25713;-35.352;149.036;2023-08-30T09:28:23;1.40;;;1.20;;
40022;SDS011;25713;-35.352;149.036;2023-08-30T09:30:53;3.25;;;1.30;;
40022;SDS011;25713;-35.352;149.036;2023-08-30T09:33:29;2.73;;;1.40;;
40022;SDS011;25713;-35.352;149.036;2023-08-30T09:36:02;2.78;;;1.20;;
40022;SDS011;25713;-35.352;149.036;2023-08-30T09:38:37;1.33;;;1.23;;
40022;SDS011;25713;-35.352;149.036;2023-08-30T09:41:06;1.73;;;1.20;;
40022;SDS011;25713;-35.352;149.036;2023-08-30T09:43:41;2.53;;;1.50;;
40022;SDS011;25713;-35.352;149.036;2023-08-30T09:46:11;2.50;;;1.30;;
40022;SDS011;25713;-35.352;149.036;2023-08-30T09:48:41;2.13;;;1.33;;
40022;SDS011;25713;-35.352;149.036;2023-08-30T09:51:14;1.88;;;1.40;;
40022;SDS011;25713;-35.352;149.036;2023-08-30T09:53:45;1.70;;;1.33;;
40022;SDS011;25713;-35.352;149.036;2023-08-30T09:56:17;3.92;;;2.22;;
40022;SDS011;25713;-35.352;149.036;2023-08-30T09:58:47;3.80;;;2.10;;
40022;SDS011;25713;-35.352;149.036;2023-08-30T10:01:17;3.13;;;1.75;;
40022;SDS011;25713;-35.352;149.036;2023-08-30T10:03:47;4.63;;;2.17;;
40022;SDS011;25713;-35.352;149.036;2023-08-30T10:06:19;6.25;;;2.20;;
40022;SDS011;25713;-35.352;149.036;2023-08-30T10:08:51;3.72;;;2.15;;
40022;SDS011;25713;-35.352;149.036;2023-08-30T10:11:21;3.58;;;2.15;;
40022;SDS011;25713;-35.352;149.036;2023-08-30T10:13:51;3.38;;;1.98;;
40022;SDS011;25713;-35.352;149.036;2023-08-30T10:16:22;4.35;;;2.08;;
40022;SDS011;25713;-35.352;149.036;2023-08-30T10:18:54;2.60;;;1.77;;
40022;SDS011;25713;-35.352;149.036;2023-08-30T10:21:31;2.92;;;2.00;;
40022;SDS011;25713;-35.352;149.036;2023-08-30T10:24:02;3.42;;;2.15;;
40022;SDS011;25713;-35.352;149.036;2023-08-30T10:26:34;4.82;;;1.90;;
40022;SDS011;25713;-35.352;149.036;2023-08-30T10:29:05;3.08;;;2.17;;
40022;SDS011;25713;-35.352;149.036;2023-08-30T10:31:37;3.80;;;1.85;;
40022;SDS011;25713;-35.352;149.036;2023-08-30T10:34:12;3.03;;;1.90;;
40022;SDS011;25713;-35.352;149.036;2023-08-30T10:36:55;2.83;;;1.92;;
40022;SDS011;25713;-35.352;149.036;2023-08-30T10:39:32;3.35;;;2.00;;
40022;SDS011;25713;-35.352;149.036;2023-08-30T10:42:07;4.38;;;2.20;;
40022;SDS011;25713;-35.352;149.036;2023-08-30T10:44:48;2.40;;;1.90;;
40022;SDS011;25713;-35.352;149.036;2023-08-30T10:47:22;2.97;;;2.03;;
40022;SDS011;25713;-35.352;149.036;2023-08-30T10:49:53;3.80;;;2.10;;
40022;SDS011;25713;-35.352;149.036;2023-08-30T10:52:26;3.35;;;1.83;;
40022;SDS011;25713;-35.352;149.036;2023-08-30T10:55:04;3.40;;;1.80;;
40022;SDS011;25713;-35.352;149.036;2023-08-30T10:57:35;5.05;;;1.83;;
40022;SDS011;25713;-35.352;149.036;2023-08-30T11:00:06;3.40;;;1.83;;
40022;SDS011;25713;-35.352;149.036;2023-08-30T11:02:36;2.55;;;1.73;;
40022;SDS011;25713;-35.352;149.036;2023-08-30T11:05:10;4.18;;;2.28;;
40022;SDS011;25713;-35.352;149.036;2023-08-30T11:07:43;2.33;;;1.77;;
40022;SDS011;25713;-35.352;149.036;2023-08-30T11:10:13;5.35;;;1.70;;
40022;SDS011;25713;-35.352;149.036;2023-08-30T11:12:43;3.00;;;2.10;;
40022;SDS011;25713;-35.352;149.036;2023-08-30T11:15:13;2.78;;;2.00;;
40022;SDS011;25713;-35.352;149.036;2023-08-30T11:17:43;2.30;;;1.65;;
40022;SDS011;25713;-35.352;149.036;2023-08-30T11:20:13;3.03;;;1.80;;
40022;SDS011;25713;-35.352;149.036;2023-08-30T11:22:50;1.85;;;1.55;;
40022;SDS011;25713;-35.352;149.036;2023-08-30T11:25:23;3.47;;;1.85;;
40022;SDS011;25713;-35.352;149.036;2023-08-30T11:28:01;2.40;;;1.85;;
40022;SDS011;25713;-35.352;149.036;2023-08-30T11:30:31;2.58;;;1.70;;
40022;SDS011;25713;-35.352;149.036;2023-08-30T11:33:07;2.72;;;1.73;;
40022;SDS011;25713;-35.352;149.036;2023-08-30T11:35:37;2.50;;;1.92;;
40022;SDS011;25713;-35.352;149.036;2023-08-30T11:38:11;3.20;;;1.85;;
40022;SDS011;25713;-35.352;149.036;2023-08-30T11:40:41;2.38;;;1.90;;
40022;SDS011;25713;-35.352;149.036;2023-08-30T11:43:11;2.20;;;1.80;;
40022;SDS011;25713;-35.352;149.036;2023-08-30T11:45:42;4.07;;;1.98;;
40022;SDS011;25713;-35.352;149.036;2023-08-30T11:48:12;2.83;;;2.10;;
40022;SDS011;25713;-35.352;149.036;2023-08-30T11:50:42;3.20;;;2.13;;
40022;SDS011;25713;-35.352;149.036;2023-08-30T11:53:16;4.50;;;3.20;;
40022;SDS011;25713;-35.352;149.036;2023-08-30T11:55:45;3.60;;;2.55;;
40022;SDS011;25713;-35.352;149.036;2023-08-30T11:58:15;3.83;;;2.50;;
40022;SDS011;25713;-35.352;149.036;2023-08-30T12:00:49;5.18;;;2.70;;
40022;SDS011;25713;-35.352;149.036;2023-08-30T12:03:20;3.75;;;2.47;;
40022;SDS011;25713;-35.352;149.036;2023-08-30T12:05:50;2.83;;;2.50;;
40022;SDS011;25713;-35.352;149.036;2023-08-30T12:08:23;4.05;;;2.25;;
40022;SDS011;25713;-35.352;149.036;2023-08-30T12:10:53;2.88;;;2.13;;
40022;SDS011;25713;-35.352;149.036;2023-08-30T12:13:23;3.88;;;2.60;;
40022;SDS011;25713;-35.352;149.036;2023-08-30T12:15:54;2.95;;;2.42;;
40022;SDS011;25713;-35.352;149.036;2023-08-30T12:18:25;2.58;;;2.00;;
40022;SDS011;25713;-35.352;149.036;2023-08-30T12:20:56;2.95;;;2.10;;
40022;SDS011;25713;-35.352;149.036;2023-08-30T12:23:32;3.55;;;2.13;;
40022;SDS011;25713;-35.352;149.036;2023-08-30T12:26:02;2.47;;;1.80;;
40022;SDS011;25713;-35.352;149.036;2023-08-30T12:28:32;2.78;;;2.13;;
40022;SDS011;25713;-35.352;149.036;2023-08-30T12:31:03;2.92;;;1.90;;
40022;SDS011;25713;-35.352;149.036;2023-08-30T12:33:32;2.58;;;1.80;;
40022;SDS011;25713;-35.352;149.036;2023-08-30T12:36:02;3.25;;;1.80;;
40022;SDS011;25713;-35.352;149.036;2023-08-30T12:38:35;3.03;;;1.83;;
40022;SDS011;25713;-35.352;149.036;2023-08-30T12:41:05;2.83;;;1.83;;
40022;SDS011;25713;-35.352;149.036;2023-08-30T12:43:34;3.90;;;1.52;;
40022;SDS011;25713;-35.352;149.036;2023-08-30T12:46:04;2.03;;;1.48;;
40022;SDS011;25713;-35.352;149.036;2023-08-30T12:48:34;2.50;;;1.48;;
40022;SDS011;25713;-35.352;149.036;2023-08-30T12:51:04;3.03;;;1.20;;
40022;SDS011;25713;-35.352;149.036;2023-08-30T12:53:36;1.95;;;1.40;;
40022;SDS011;25713;-35.352;149.036;2023-08-30T12:56:06;1.80;;;1.23;;
40022;SDS011;25713;-35.352;149.036;2023-08-30T12:58:35;2.38;;;1.25;;
40022;SDS011;25713;-35.352;149.036;2023-08-30T13:01:05;2.58;;;1.20;;
40022;SDS011;25713;-35.352;149.036;2023-08-30T13:03:34;2.22;;;1.17;;
40022;SDS011;25713;-35.352;149.036;2023-08-30T13:06:04;1.67;;;1.00;;
40022;SDS011;25713;-35.352;149.036;2023-08-30T13:08:33;2.30;;;1.02;;
40022;SDS011;25713;-35.352;149.036;2023-08-30T13:13:34;1.63;;;1.10;;
40022;SDS011;25713;-35.352;149.036;2023-08-30T13:16:03;0.90;;;0.80;;
40022;SDS011;25713;-35.352;149.036;2023-08-30T13:18:33;1.00;;;0.90;;
40022;SDS011;25713;-35.352;149.036;2023-08-30T13:21:02;1.05;;;0.80;;
40022;SDS011;25713;-35.352;149.036;2023-08-30T13:23:32;1.40;;;0.80;;
40022;SDS011;25713;-35.352;149.036;2023-08-30T13:26:03;2.50;;;0.80;;
40022;SDS011;25713;-35.352;149.036;2023-08-30T13:28:33;1.73;;;0.95;;
40022;SDS011;25713;-35.352;149.036;2023-08-30T13:31:02;2.88;;;1.20;;
40022;SDS011;25713;-35.352;149.036;2023-08-30T13:33:35;1.60;;;1.02;;
40022;SDS011;25713;-35.352;149.036;2023-08-30T13:36:04;2.17;;;1.30;;
40022;SDS011;25713;-35.352;149.036;2023-08-30T13:38:34;1.38;;;1.15;;
40022;SDS011;25713;-35.352;149.036;2023-08-30T13:41:05;2.08;;;1.52;;
40022;SDS011;25713;-35.352;149.036;2023-08-30T13:43:35;2.90;;;1.60;;
40022;SDS011;25713;-35.352;149.036;2023-08-30T13:46:04;2.08;;;1.40;;
40022;SDS011;25713;-35.352;149.036;2023-08-30T13:48:34;2.58;;;1.60;;
40022;SDS011;25713;-35.352;149.036;2023-08-30T13:51:03;3.53;;;1.80;;
40022;SDS011;25713;-35.352;149.036;2023-08-30T13:53:33;3.10;;;1.85;;
40022;SDS011;25713;-35.352;149.036;2023-08-30T13:56:02;2.17;;;1.60;;
40022;SDS011;25713;-35.352;149.036;2023-08-30T13:58:36;2.30;;;1.90;;
40022;SDS011;25713;-35.352;149.036;2023-08-30T14:01:06;2.20;;;1.60;;
40022;SDS011;25713;-35.352;149.036;2023-08-30T14:03:36;3.25;;;1.70;;
40022;SDS011;25713;-35.352;149.036;2023-08-30T14:06:05;2.28;;;1.52;;
40022;SDS011;25713;-35.352;149.036;2023-08-30T14:08:35;2.65;;;1.67;;
40022;SDS011;25713;-35.352;149.036;2023-08-30T14:11:08;2.40;;;1.50;;
40022;SDS011;25713;-35.352;149.036;2023-08-30T14:13:38;2.45;;;1.90;;
40022;SDS011;25713;-35.352;149.036;2023-08-30T14:16:07;2.78;;;1.50;;
40022;SDS011;25713;-35.352;149.036;2023-08-30T14:18:37;1.58;;;1.23;;
40022;SDS011;25713;-35.352;149.036;2023-08-30T14:21:06;1.98;;;1.30;;
40022;SDS011;25713;-35.352;149.036;2023-08-30T14:23:36;2.72;;;1.33;;
40022;SDS011;25713;-35.352;149.036;2023-08-30T14:26:08;2.33;;;1.58;;
40022;SDS011;25713;-35.352;149.036;2023-08-30T14:28:38;1.98;;;1.20;;
40022;SDS011;25713;-35.352;149.036;2023-08-30T14:31:08;1.98;;;1.38;;
40022;SDS011;25713;-35.352;149.036;2023-08-30T14:33:41;1.88;;;1.58;;
40022;SDS011;25713;-35.352;149.036;2023-08-30T14:36:11;1.52;;;1.17;;